createdAt,value
2022-11-29T00:00:04.485Z,56.23
2022-11-29T00:01:04.485Z,56.08
2022-11-29T00:02:04.655Z,49.87
2022-11-29T00:03:04.557Z,46.77
2022-11-29T00:04:04.467Z,49.04
2022-11-29T00:05:04.465Z,47.83
2022-11-29T00:06:04.453Z,53.27
2022-11-29T00:07:04.458Z,55.30
2022-11-29T00:08:04.465Z,54.54
2022-11-29T00:09:04.436Z,56.15
2022-11-29T00:10:04.440Z,55.04
2022-11-29T00:11:04.424Z,56.78
2022-11-29T00:12:04.418Z,55.63
2022-11-29T00:13:04.429Z,56.06
2022-11-29T00:14:04.417Z,56.06
2022-11-29T00:15:04.407Z,54.47
2022-11-29T00:16:04.392Z,56.91
2022-11-29T00:17:04.454Z,55.11
2022-11-29T00:18:04.398Z,55.45
2022-11-29T00:19:04.373Z,56.95
2022-11-29T00:20:04.364Z,56.87
2022-11-29T00:21:04.356Z,55.40
2022-11-29T00:22:04.344Z,56.24
2022-11-29T00:23:04.348Z,53.08
2022-11-29T00:24:04.343Z,52.81
2022-11-29T00:25:04.324Z,56.01
2022-11-29T00:26:04.342Z,60.11
2022-11-29T00:27:04.328Z,55.82
2022-11-29T00:28:04.340Z,58.33
2022-11-29T00:29:04.324Z,56.20
2022-11-29T00:30:04.312Z,55.95
2022-11-29T00:31:04.322Z,52.62
2022-11-29T00:32:04.325Z,52.18
2022-11-29T00:33:04.264Z,54.01
2022-11-29T00:34:04.277Z,51.94
2022-11-29T00:35:09.479Z,53.54
2022-11-29T00:36:06.265Z,55.34
2022-11-29T00:37:04.236Z,55.61
2022-11-29T00:38:05.253Z,53.82
2022-11-29T00:39:04.249Z,55.64
2022-11-29T00:40:04.224Z,56.64
2022-11-29T00:41:04.232Z,51.47
2022-11-29T00:42:04.226Z,53.39
2022-11-29T00:43:04.245Z,55.56
2022-11-29T00:44:04.238Z,54.51
2022-11-29T00:45:04.208Z,55.41
2022-11-29T00:46:04.235Z,55.20
2022-11-29T00:47:04.189Z,54.32
2022-11-29T00:48:04.185Z,52.85
2022-11-29T00:49:04.195Z,52.87
2022-11-29T00:50:04.178Z,56.03
2022-11-29T00:51:04.164Z,52.51
2022-11-29T00:52:04.158Z,47.87
2022-11-29T00:53:04.153Z,53.61
2022-11-29T00:54:04.145Z,54.82
2022-11-29T00:55:04.148Z,49.31
2022-11-29T00:56:04.140Z,51.36
2022-11-29T00:57:04.121Z,54.20
2022-11-29T00:58:04.136Z,53.59
2022-11-29T00:59:04.117Z,54.05
2022-11-29T01:00:04.108Z,49.79
2022-11-29T01:01:04.162Z,55.51
2022-11-29T01:02:04.189Z,55.78
2022-11-29T01:03:04.084Z,51.36
2022-11-29T01:04:04.072Z,48.60
2022-11-29T01:05:04.063Z,48.43
2022-11-29T01:06:04.076Z,49.38
2022-11-29T01:07:04.052Z,53.96
2022-11-29T01:08:04.054Z,56.10
2022-11-29T01:09:04.092Z,55.16
2022-11-29T01:10:04.045Z,54.11
2022-11-29T01:11:04.028Z,50.99
2022-11-29T01:12:04.027Z,55.80
2022-11-29T01:13:04.019Z,52.46
2022-11-29T01:14:04.035Z,49.09
2022-11-29T01:15:04.002Z,54.78
2022-11-29T01:16:03.997Z,50.11
2022-11-29T01:17:04.049Z,54.46
2022-11-29T01:18:03.985Z,49.92
2022-11-29T01:19:03.979Z,52.14
2022-11-29T01:20:03.985Z,55.17
2022-11-29T01:21:03.960Z,54.50
2022-11-29T01:22:03.953Z,51.60
2022-11-29T01:23:03.955Z,54.16
2022-11-29T01:24:04.023Z,50.12
2022-11-29T01:25:03.944Z,49.82
2022-11-29T01:26:03.923Z,52.19
2022-11-29T01:27:03.924Z,51.44
2022-11-29T01:28:03.913Z,52.00
2022-11-29T01:29:03.916Z,47.81
2022-11-29T01:30:03.917Z,49.48
2022-11-29T01:31:03.943Z,50.48
2022-11-29T01:32:03.893Z,55.62
2022-11-29T01:33:03.888Z,53.67
2022-11-29T01:34:03.883Z,51.44
2022-11-29T01:35:03.880Z,54.20
2022-11-29T01:36:03.866Z,48.57
2022-11-29T01:37:03.856Z,47.82
2022-11-29T01:38:03.844Z,53.25
2022-11-29T01:39:03.851Z,54.09
2022-11-29T01:40:03.852Z,53.69
2022-11-29T01:41:03.831Z,54.56
2022-11-29T01:42:03.813Z,54.14
2022-11-29T01:43:03.811Z,53.66
2022-11-29T01:44:03.807Z,52.42
2022-11-29T01:45:03.805Z,54.94
2022-11-29T01:46:03.828Z,49.77
2022-11-29T01:47:04.780Z,51.21
2022-11-29T01:48:03.775Z,50.89
2022-11-29T01:49:03.788Z,53.91
2022-11-29T01:50:03.757Z,53.76
2022-11-29T01:51:03.781Z,52.35
2022-11-29T01:52:03.752Z,51.75
2022-11-29T01:53:03.741Z,53.34
2022-11-29T01:54:03.750Z,54.65
2022-11-29T01:55:03.729Z,49.71
2022-11-29T01:56:03.786Z,51.98
2022-11-29T01:57:03.734Z,52.94
2022-11-29T01:58:03.709Z,52.67
2022-11-29T01:59:03.700Z,54.67
2022-11-29T02:00:03.693Z,56.27
2022-11-29T02:01:03.767Z,50.85
2022-11-29T02:02:03.704Z,49.65
2022-11-29T02:03:03.668Z,51.66
2022-11-29T02:04:03.665Z,53.59
2022-11-29T02:05:03.672Z,50.78
2022-11-29T02:06:03.656Z,54.07
2022-11-29T02:07:03.643Z,47.12
2022-11-29T02:08:03.643Z,51.14
2022-11-29T02:09:03.638Z,56.52
2022-11-29T02:10:03.625Z,54.04
2022-11-29T02:11:03.633Z,53.19
2022-11-29T02:12:03.621Z,51.26
2022-11-29T02:13:03.629Z,47.49
2022-11-29T02:14:03.604Z,52.42
2022-11-29T02:15:03.601Z,55.41
2022-11-29T02:16:03.638Z,52.01
2022-11-29T02:17:03.582Z,55.40
2022-11-29T02:18:03.596Z,48.51
2022-11-29T02:19:03.564Z,54.13
2022-11-29T02:20:03.564Z,52.75
2022-11-29T02:21:03.552Z,52.75
2022-11-29T02:22:03.548Z,52.83
2022-11-29T02:23:03.562Z,51.50
2022-11-29T02:24:03.534Z,53.68
2022-11-29T02:25:03.522Z,54.62
2022-11-29T02:26:03.521Z,57.00
2022-11-29T02:27:03.505Z,56.71
2022-11-29T02:28:03.505Z,51.07
2022-11-29T02:29:03.533Z,48.46
2022-11-29T02:30:03.491Z,47.97
2022-11-29T02:31:03.509Z,53.44
2022-11-29T02:32:03.476Z,56.40
2022-11-29T02:33:03.468Z,54.97
2022-11-29T02:34:03.481Z,50.19
2022-11-29T02:35:03.485Z,49.86
2022-11-29T02:36:03.444Z,54.87
2022-11-29T02:37:07.266Z,54.63
2022-11-29T02:38:05.433Z,49.62
2022-11-29T02:39:03.433Z,54.40
2022-11-29T02:40:03.447Z,55.55
2022-11-29T02:41:03.419Z,50.84
2022-11-29T02:42:03.409Z,52.74
2022-11-29T02:43:03.419Z,53.44
2022-11-29T02:44:03.399Z,53.30
2022-11-29T02:45:03.392Z,53.88
2022-11-29T02:46:03.425Z,54.19
2022-11-29T02:47:03.412Z,51.99
2022-11-29T02:48:03.364Z,53.73
2022-11-29T02:49:03.347Z,50.83
2022-11-29T02:50:03.361Z,50.95
2022-11-29T02:51:03.347Z,51.59
2022-11-29T02:52:03.339Z,52.57
2022-11-29T02:53:03.325Z,53.55
2022-11-29T02:54:03.319Z,46.86
2022-11-29T02:55:03.315Z,51.00
2022-11-29T02:56:03.295Z,55.00
2022-11-29T02:57:03.299Z,52.45
2022-11-29T02:58:03.313Z,55.94
2022-11-29T02:59:03.299Z,47.53
2022-11-29T03:00:03.297Z,57.13
2022-11-29T03:01:03.331Z,50.36
2022-11-29T03:02:03.439Z,53.12
2022-11-29T03:03:03.275Z,54.53
2022-11-29T03:04:03.253Z,54.80
2022-11-29T03:05:03.247Z,56.35
2022-11-29T03:06:03.248Z,48.36
2022-11-29T03:07:03.241Z,51.45
2022-11-29T03:08:03.225Z,51.38
2022-11-29T03:09:03.233Z,55.54
2022-11-29T03:10:03.212Z,54.08
2022-11-29T03:11:03.200Z,53.48
2022-11-29T03:12:03.194Z,52.68
2022-11-29T03:13:03.197Z,53.17
2022-11-29T03:14:03.207Z,54.84
2022-11-29T03:15:03.185Z,54.29
2022-11-29T03:16:03.246Z,52.24
2022-11-29T03:17:03.164Z,52.55
2022-11-29T03:18:03.160Z,55.88
2022-11-29T03:19:03.152Z,53.25
2022-11-29T03:20:03.154Z,57.15
2022-11-29T03:21:03.133Z,55.07
2022-11-29T03:22:03.133Z,50.44
2022-11-29T03:23:03.108Z,57.04
2022-11-29T03:24:03.108Z,56.84
2022-11-29T03:25:03.121Z,56.04
2022-11-29T03:26:03.103Z,56.78
2022-11-29T03:27:03.108Z,54.36
2022-11-29T03:28:03.096Z,58.18
2022-11-29T03:29:03.079Z,50.78
2022-11-29T03:30:03.068Z,53.48
2022-11-29T03:31:03.121Z,52.80
2022-11-29T03:32:03.062Z,55.44
2022-11-29T03:33:03.047Z,53.45
2022-11-29T03:34:03.043Z,52.84
2022-11-29T03:35:03.027Z,54.76
2022-11-29T03:36:03.050Z,56.81
2022-11-29T03:37:03.021Z,52.08
2022-11-29T03:38:03.017Z,51.59
2022-11-29T03:39:02.985Z,51.65
2022-11-29T03:40:02.997Z,50.39
2022-11-29T03:41:03.009Z,58.03
2022-11-29T03:42:02.985Z,55.88
2022-11-29T03:43:02.968Z,58.07
2022-11-29T03:44:02.970Z,55.78
2022-11-29T03:45:02.955Z,56.73
2022-11-29T03:46:02.997Z,57.71
2022-11-29T03:47:02.962Z,56.59
2022-11-29T03:48:02.922Z,54.97
2022-11-29T03:49:02.926Z,55.09
2022-11-29T03:50:02.925Z,56.79
2022-11-29T03:51:02.918Z,54.01
2022-11-29T03:52:02.917Z,57.78
2022-11-29T03:53:02.903Z,55.64
2022-11-29T03:54:02.898Z,56.88
2022-11-29T03:55:02.873Z,57.46
2022-11-29T03:56:02.880Z,58.29
2022-11-29T03:57:02.870Z,55.48
2022-11-29T03:58:02.875Z,57.35
2022-11-29T03:59:02.856Z,56.89
2022-11-29T04:00:02.854Z,52.73
2022-11-29T04:01:02.842Z,54.84
2022-11-29T04:02:02.838Z,59.93
2022-11-29T04:03:02.900Z,56.27
2022-11-29T04:04:02.824Z,54.28
2022-11-29T04:05:02.814Z,55.04
2022-11-29T04:06:02.813Z,53.75
2022-11-29T04:07:02.801Z,53.76
2022-11-29T04:08:02.845Z,54.18
2022-11-29T04:09:02.794Z,53.03
2022-11-29T04:10:02.803Z,55.67
2022-11-29T04:11:02.759Z,56.21
2022-11-29T04:12:02.760Z,56.25
2022-11-29T04:13:02.753Z,54.93
2022-11-29T04:14:02.765Z,55.31
2022-11-29T04:15:02.744Z,56.09
2022-11-29T04:16:02.982Z,55.34
2022-11-29T04:17:02.720Z,55.55
2022-11-29T04:18:02.712Z,56.56
2022-11-29T04:19:02.708Z,57.71
2022-11-29T04:20:02.710Z,58.12
2022-11-29T04:21:02.696Z,58.28
2022-11-29T04:22:02.681Z,57.36
2022-11-29T04:23:02.676Z,56.64
2022-11-29T04:24:02.685Z,56.22
2022-11-29T04:25:02.668Z,54.86
2022-11-29T04:26:02.664Z,56.21
2022-11-29T04:27:02.652Z,57.04
2022-11-29T04:28:02.651Z,56.63
2022-11-29T04:29:02.640Z,55.63
2022-11-29T04:30:02.641Z,57.09
2022-11-29T04:31:02.714Z,55.98
2022-11-29T04:32:02.627Z,55.17
2022-11-29T04:33:02.610Z,57.14
2022-11-29T04:34:02.604Z,57.87
2022-11-29T04:35:02.596Z,57.20
2022-11-29T04:36:02.601Z,57.37
2022-11-29T04:37:02.584Z,56.85
2022-11-29T04:38:02.569Z,58.14
2022-11-29T04:39:02.564Z,56.03
2022-11-29T04:40:02.576Z,58.09
2022-11-29T04:41:02.540Z,58.40
2022-11-29T04:42:02.552Z,57.86
2022-11-29T04:43:02.532Z,57.87
2022-11-29T04:44:02.527Z,57.22
2022-11-29T04:45:02.653Z,58.19
2022-11-29T04:46:02.556Z,58.87
2022-11-29T04:47:02.497Z,57.52
2022-11-29T04:48:02.501Z,57.01
2022-11-29T04:49:02.492Z,57.71
2022-11-29T04:50:02.497Z,58.35
2022-11-29T04:51:02.481Z,58.77
2022-11-29T04:52:02.496Z,57.70
2022-11-29T04:53:02.457Z,57.78
2022-11-29T04:54:02.444Z,57.58
2022-11-29T04:55:02.467Z,58.00
2022-11-29T04:56:02.436Z,58.11
2022-11-29T04:57:02.430Z,58.18
2022-11-29T04:58:02.434Z,57.09
2022-11-29T04:59:02.417Z,58.34
2022-11-29T05:00:02.399Z,57.81
2022-11-29T05:01:02.421Z,56.71
2022-11-29T05:02:02.447Z,58.01
2022-11-29T05:03:02.451Z,58.56
2022-11-29T05:04:02.374Z,58.49
2022-11-29T05:05:02.376Z,58.72
2022-11-29T05:06:02.380Z,57.68
2022-11-29T05:07:02.356Z,57.35
2022-11-29T05:08:02.359Z,58.00
2022-11-29T05:09:02.359Z,58.57
2022-11-29T05:10:02.331Z,57.36
2022-11-29T05:11:02.365Z,57.73
2022-11-29T05:12:02.332Z,57.94
2022-11-29T05:13:02.318Z,58.40
2022-11-29T05:14:02.315Z,58.32
2022-11-29T05:15:02.295Z,58.86
2022-11-29T05:16:02.332Z,58.86
2022-11-29T05:17:02.308Z,57.95
2022-11-29T05:18:02.293Z,58.47
2022-11-29T05:19:02.273Z,58.61
2022-11-29T05:20:02.267Z,59.66
2022-11-29T05:21:02.259Z,56.94
2022-11-29T05:22:02.295Z,57.25
2022-11-29T05:23:02.273Z,58.23
2022-11-29T05:24:02.250Z,57.44
2022-11-29T05:25:02.236Z,58.43
2022-11-29T05:26:02.235Z,58.36
2022-11-29T05:27:02.245Z,58.33
2022-11-29T05:28:05.676Z,57.13
2022-11-29T05:29:04.203Z,58.38
2022-11-29T05:30:02.199Z,58.04
2022-11-29T05:31:02.255Z,59.28
2022-11-29T05:32:02.198Z,61.67
2022-11-29T05:33:02.191Z,59.73
2022-11-29T05:34:02.180Z,60.04
2022-11-29T05:35:02.171Z,60.17
2022-11-29T05:36:02.169Z,59.66
2022-11-29T05:37:02.151Z,60.81
2022-11-29T05:38:02.194Z,59.82
2022-11-29T05:39:02.146Z,58.90
2022-11-29T05:40:02.149Z,59.88
2022-11-29T05:41:02.127Z,61.21
2022-11-29T05:42:02.124Z,61.29
2022-11-29T05:43:02.138Z,59.86
2022-11-29T05:44:02.104Z,61.41
2022-11-29T05:45:02.095Z,60.89
2022-11-29T05:46:02.101Z,61.48
2022-11-29T05:47:02.102Z,63.39
2022-11-29T05:48:02.083Z,62.30
2022-11-29T05:49:02.059Z,62.73
2022-11-29T05:50:02.052Z,61.86
2022-11-29T05:51:02.057Z,61.50
2022-11-29T05:52:02.043Z,61.40
2022-11-29T05:53:02.032Z,62.65
2022-11-29T05:54:02.018Z,61.65
2022-11-29T05:55:02.036Z,62.30
2022-11-29T05:56:02.016Z,61.20
2022-11-29T05:57:02.011Z,59.94
2022-11-29T05:58:01.999Z,58.88
2022-11-29T05:59:01.988Z,61.38
2022-11-29T06:00:02.000Z,60.81
2022-11-29T06:01:01.984Z,61.15
2022-11-29T06:02:02.013Z,60.45
2022-11-29T06:03:02.007Z,60.88
2022-11-29T06:04:02.046Z,62.10
2022-11-29T06:05:01.956Z,61.10
2022-11-29T06:06:01.977Z,60.76
2022-11-29T06:07:01.936Z,62.20
2022-11-29T06:08:01.927Z,61.25
2022-11-29T06:09:01.980Z,59.70
2022-11-29T06:10:02.271Z,62.54
2022-11-29T06:11:01.905Z,59.87
2022-11-29T06:12:01.956Z,59.37
2022-11-29T06:13:01.908Z,60.18
2022-11-29T06:14:01.898Z,60.36
2022-11-29T06:15:01.892Z,61.21
2022-11-29T06:16:01.990Z,60.80
2022-11-29T06:17:01.914Z,61.25
2022-11-29T06:18:01.861Z,61.32
2022-11-29T06:19:01.844Z,60.71
2022-11-29T06:20:01.848Z,61.93
2022-11-29T06:21:01.861Z,61.83
2022-11-29T06:22:01.843Z,63.30
2022-11-29T06:23:01.831Z,62.79
2022-11-29T06:24:01.817Z,60.81
2022-11-29T06:25:01.812Z,60.47
2022-11-29T06:26:04.125Z,61.16
2022-11-29T06:27:02.812Z,62.17
2022-11-29T06:28:01.784Z,60.98
2022-11-29T06:29:01.780Z,60.20
2022-11-29T06:30:01.775Z,60.14
2022-11-29T06:31:01.787Z,60.90
2022-11-29T06:32:01.767Z,62.03
2022-11-29T06:33:01.759Z,62.01
2022-11-29T06:34:01.751Z,62.75
2022-11-29T06:35:01.740Z,61.90
2022-11-29T06:36:01.728Z,61.69
2022-11-29T06:37:01.753Z,60.73
2022-11-29T06:38:01.728Z,60.99
2022-11-29T06:39:01.708Z,60.57
2022-11-29T06:40:01.715Z,60.47
2022-11-29T06:41:02.547Z,61.77
2022-11-29T06:42:02.727Z,62.12
2022-11-29T06:43:01.685Z,61.34
2022-11-29T06:44:01.678Z,59.68
2022-11-29T06:45:01.666Z,59.44
2022-11-29T06:46:01.670Z,59.83
2022-11-29T06:47:01.758Z,60.77
2022-11-29T06:48:01.663Z,61.73
2022-11-29T06:49:02.451Z,60.54
2022-11-29T06:50:02.637Z,61.39
2022-11-29T06:51:01.626Z,60.12
2022-11-29T06:52:01.624Z,60.86
2022-11-29T06:53:01.635Z,60.95
2022-11-29T06:54:01.604Z,61.57
2022-11-29T06:55:01.607Z,59.81
2022-11-29T06:56:01.596Z,60.83
2022-11-29T06:57:01.585Z,60.76
2022-11-29T06:58:02.603Z,60.50
2022-11-29T06:59:01.583Z,60.86
2022-11-29T07:00:01.595Z,62.03
2022-11-29T07:01:01.620Z,59.71
2022-11-29T07:02:01.585Z,58.56
2022-11-29T07:03:01.549Z,60.33
2022-11-29T07:04:01.554Z,59.95
2022-11-29T07:05:01.537Z,60.36
2022-11-29T07:06:01.525Z,60.73
2022-11-29T07:07:01.524Z,61.14
2022-11-29T07:08:01.553Z,59.30
2022-11-29T07:09:01.521Z,60.29
2022-11-29T07:10:01.508Z,59.83
2022-11-29T07:11:01.496Z,59.20
2022-11-29T07:12:01.491Z,59.28
2022-11-29T07:13:01.483Z,60.55
2022-11-29T07:14:01.484Z,59.22
2022-11-29T07:15:01.461Z,58.51
2022-11-29T07:16:01.535Z,59.37
2022-11-29T07:17:01.456Z,59.28
2022-11-29T07:18:01.444Z,58.75
2022-11-29T07:19:01.455Z,59.13
2022-11-29T07:20:01.431Z,58.25
2022-11-29T07:21:01.438Z,58.36
2022-11-29T07:22:01.428Z,57.74
2022-11-29T07:23:01.419Z,58.15
2022-11-29T07:24:01.406Z,58.13
2022-11-29T07:25:01.408Z,57.85
2022-11-29T07:26:01.415Z,57.40
2022-11-29T07:27:01.411Z,58.49
2022-11-29T07:28:01.387Z,59.00
2022-11-29T07:29:01.365Z,57.89
2022-11-29T07:30:01.361Z,58.95
2022-11-29T07:31:01.429Z,58.23
2022-11-29T07:32:01.345Z,57.81
2022-11-29T07:33:01.348Z,57.36
2022-11-29T07:34:01.331Z,59.06
2022-11-29T07:35:01.336Z,58.56
2022-11-29T07:36:01.345Z,58.05
2022-11-29T07:37:01.309Z,57.46
2022-11-29T07:38:01.327Z,56.32
2022-11-29T07:39:01.314Z,58.40
2022-11-29T07:40:01.339Z,57.33
2022-11-29T07:41:01.304Z,58.61
2022-11-29T07:42:01.296Z,58.21
2022-11-29T07:43:01.272Z,57.31
2022-11-29T07:44:01.272Z,57.56
2022-11-29T07:45:01.256Z,57.64
2022-11-29T07:46:01.280Z,57.35
2022-11-29T07:47:01.309Z,57.84
2022-11-29T07:48:01.255Z,57.30
2022-11-29T07:49:01.227Z,58.12
2022-11-29T07:50:02.227Z,58.65
2022-11-29T07:51:01.255Z,57.93
2022-11-29T07:52:01.231Z,57.51
2022-11-29T07:53:01.211Z,57.60
2022-11-29T07:54:01.206Z,58.54
2022-11-29T07:55:01.247Z,56.81
2022-11-29T07:56:01.230Z,57.24
2022-11-29T07:57:01.198Z,58.52
2022-11-29T07:58:01.178Z,57.28
2022-11-29T07:59:01.176Z,56.90
2022-11-29T08:00:01.181Z,56.82
2022-11-29T08:01:01.208Z,56.30
2022-11-29T08:02:01.160Z,56.54
2022-11-29T08:03:01.140Z,58.10
2022-11-29T08:04:01.137Z,58.63
2022-11-29T08:05:01.133Z,56.46
2022-11-29T08:06:01.107Z,58.19
2022-11-29T08:07:01.109Z,56.36
2022-11-29T08:08:01.126Z,57.71
2022-11-29T08:09:01.111Z,58.19
2022-11-29T08:10:01.091Z,55.49
2022-11-29T08:11:01.085Z,57.14
2022-11-29T08:12:01.072Z,56.31
2022-11-29T08:13:01.064Z,56.94
2022-11-29T08:14:01.055Z,57.33
2022-11-29T08:15:01.040Z,56.33
2022-11-29T08:16:01.173Z,57.88
2022-11-29T08:17:01.021Z,59.24
2022-11-29T08:18:01.024Z,57.97
2022-11-29T08:19:01.030Z,56.34
2022-11-29T08:20:04.117Z,56.55
2022-11-29T08:21:02.007Z,57.31
2022-11-29T08:22:01.008Z,56.07
2022-11-29T08:23:00.997Z,56.31
2022-11-29T08:24:00.988Z,57.93
2022-11-29T08:25:00.984Z,58.04
2022-11-29T08:26:00.977Z,56.76
2022-11-29T08:27:00.981Z,57.08
2022-11-29T08:28:00.956Z,55.72
2022-11-29T08:29:00.949Z,53.74
2022-11-29T08:30:00.937Z,55.87
2022-11-29T08:31:00.938Z,55.59
2022-11-29T08:32:01.033Z,56.93
2022-11-29T08:33:00.920Z,57.93
2022-11-29T08:34:00.916Z,56.84
2022-11-29T08:35:00.907Z,58.12
2022-11-29T08:36:00.892Z,57.51
2022-11-29T08:37:00.887Z,56.93
2022-11-29T08:38:00.900Z,56.05
2022-11-29T08:39:07.487Z,57.07
2022-11-29T08:40:02.889Z,56.67
2022-11-29T08:41:00.855Z,56.29
2022-11-29T08:42:00.850Z,57.88
2022-11-29T08:43:00.856Z,55.62
2022-11-29T08:44:00.844Z,55.93
2022-11-29T08:45:00.829Z,56.06
2022-11-29T08:46:00.859Z,56.02
2022-11-29T08:47:00.820Z,55.41
2022-11-29T08:48:00.826Z,57.81
2022-11-29T08:49:00.796Z,56.87
2022-11-29T08:50:00.800Z,55.70
2022-11-29T08:51:00.785Z,56.69
2022-11-29T08:52:00.773Z,55.86
2022-11-29T08:53:00.784Z,56.29
2022-11-29T08:54:00.764Z,56.22
2022-11-29T08:55:03.292Z,57.40
2022-11-29T08:56:01.759Z,56.36
2022-11-29T08:58:02.755Z,57.20
2022-11-29T08:59:00.733Z,56.41
2022-11-29T09:00:00.723Z,56.51
2022-11-29T09:01:00.764Z,56.69
2022-11-29T09:02:00.756Z,55.92
2022-11-29T09:03:00.714Z,55.11
2022-11-29T09:04:00.691Z,56.27
2022-11-29T09:05:00.679Z,54.60
2022-11-29T09:06:00.692Z,55.35
2022-11-29T09:07:00.664Z,56.45
2022-11-29T09:08:00.712Z,54.57
2022-11-29T09:09:00.663Z,55.50
2022-11-29T09:10:00.640Z,56.24
2022-11-29T09:11:00.660Z,54.91
2022-11-29T09:12:00.641Z,56.19
2022-11-29T09:13:00.629Z,56.51
2022-11-29T09:14:00.618Z,55.84
2022-11-29T09:15:00.621Z,57.15
2022-11-29T09:16:00.605Z,57.18
2022-11-29T09:17:00.608Z,55.91
2022-11-29T09:18:00.596Z,56.16
2022-11-29T09:19:00.584Z,55.71
2022-11-29T09:20:00.592Z,57.43
2022-11-29T09:21:00.583Z,56.95
2022-11-29T09:22:00.606Z,56.51
2022-11-29T09:23:00.573Z,57.89
2022-11-29T09:24:00.593Z,56.73
2022-11-29T09:25:00.557Z,56.49
2022-11-29T09:26:00.546Z,57.79
2022-11-29T09:27:00.553Z,56.87
2022-11-29T09:28:00.532Z,57.09
2022-11-29T09:29:00.516Z,57.20
2022-11-29T09:30:00.527Z,56.54
2022-11-29T09:31:00.508Z,56.16
2022-11-29T09:32:00.535Z,56.30
2022-11-29T09:33:00.502Z,55.97
2022-11-29T09:34:00.491Z,54.22
2022-11-29T09:35:00.506Z,54.84
2022-11-29T09:36:00.476Z,55.13
2022-11-29T09:37:00.463Z,56.53
2022-11-29T09:38:00.463Z,56.14
2022-11-29T09:39:00.449Z,55.24
2022-11-29T09:40:00.459Z,55.89
2022-11-29T09:41:00.442Z,54.55
2022-11-29T09:42:00.431Z,53.98
2022-11-29T09:43:00.416Z,54.54
2022-11-29T09:44:00.420Z,55.11
2022-11-29T09:45:00.406Z,53.66
2022-11-29T09:46:00.489Z,56.81
2022-11-29T09:47:00.400Z,56.11
2022-11-29T09:48:00.395Z,55.53
2022-11-29T09:49:00.382Z,56.71
2022-11-29T09:50:00.380Z,56.00
2022-11-29T09:51:00.376Z,55.04
2022-11-29T09:52:00.376Z,54.64
2022-11-29T09:53:00.356Z,53.71
2022-11-29T09:54:00.342Z,55.76
2022-11-29T09:55:00.343Z,56.95
2022-11-29T09:56:00.320Z,54.76
2022-11-29T09:57:00.322Z,57.35
2022-11-29T09:58:00.315Z,53.65
2022-11-29T09:59:00.304Z,54.40
2022-11-29T10:00:00.308Z,53.74
2022-11-29T10:01:00.328Z,56.07
2022-11-29T10:02:00.344Z,55.26
2022-11-29T10:03:00.276Z,54.36
2022-11-29T10:04:00.287Z,54.65
2022-11-29T10:05:00.271Z,56.99
2022-11-29T10:06:00.257Z,54.44
2022-11-29T10:07:00.283Z,54.27
2022-11-29T10:08:00.305Z,58.32
2022-11-29T10:09:00.248Z,56.77
2022-11-29T10:10:00.247Z,57.97
2022-11-29T10:11:00.211Z,54.24
2022-11-29T10:12:00.216Z,55.18
2022-11-29T10:13:00.219Z,54.53
2022-11-29T10:14:00.195Z,53.82
2022-11-29T10:15:00.188Z,55.87
2022-11-29T10:16:00.216Z,55.82
2022-11-29T10:17:00.201Z,54.34
2022-11-29T10:18:00.170Z,54.50
2022-11-29T10:19:00.172Z,56.40
2022-11-29T10:20:00.163Z,55.07
2022-11-29T10:21:00.163Z,54.20
2022-11-29T10:22:00.142Z,54.94
2022-11-29T10:23:00.145Z,55.18
2022-11-29T10:24:00.152Z,53.95
2022-11-29T10:25:00.142Z,54.33
2022-11-29T10:26:00.106Z,53.69
2022-11-29T10:27:00.134Z,55.21
2022-11-29T10:28:00.107Z,54.98
2022-11-29T10:29:00.097Z,55.48
2022-11-29T10:30:00.093Z,56.43
2022-11-29T10:31:00.218Z,55.49
2022-11-29T10:32:00.086Z,54.22
2022-11-29T10:33:00.078Z,53.16
2022-11-29T10:34:00.067Z,55.41
2022-11-29T10:35:00.039Z,54.78
2022-11-29T10:36:01.042Z,54.97
2022-11-29T10:37:00.035Z,55.17
2022-11-29T10:38:29.094Z,55.18
2022-11-29T10:39:02.035Z,54.38
2022-11-29T10:40:00.017Z,55.79
2022-11-29T10:41:00.010Z,55.62
2022-11-29T10:41:59.999Z,53.73
2022-11-29T10:43:00.003Z,54.63
2022-11-29T10:44:00.002Z,55.08
2022-11-29T10:44:59.979Z,54.86
2022-11-29T10:46:00.021Z,54.67
2022-11-29T10:46:59.966Z,53.81
2022-11-29T10:47:59.974Z,53.18
2022-11-29T10:48:59.954Z,55.49
2022-11-29T10:49:59.967Z,56.03
2022-11-29T10:50:59.948Z,52.88
2022-11-29T10:51:59.935Z,52.54
2022-11-29T10:53:00.293Z,53.09
2022-11-29T10:54:00.924Z,53.13
2022-11-29T10:55:00.019Z,53.51
2022-11-29T10:55:59.914Z,53.35
2022-11-29T10:56:59.927Z,54.88
2022-11-29T10:57:59.897Z,53.54
2022-11-29T10:58:59.889Z,54.96
2022-11-29T10:59:59.874Z,53.24
2022-11-29T11:00:59.960Z,51.68
2022-11-29T11:01:59.879Z,54.65
2022-11-29T11:02:59.859Z,55.44
2022-11-29T11:03:59.854Z,57.41
2022-11-29T11:04:59.847Z,54.90
2022-11-29T11:05:59.863Z,54.25
2022-11-29T11:06:59.827Z,52.21
2022-11-29T11:08:06.703Z,52.21
2022-11-29T11:08:59.811Z,55.00
2022-11-29T11:09:59.812Z,54.66
2022-11-29T11:11:01.876Z,52.52
2022-11-29T11:12:00.796Z,55.21
2022-11-29T11:12:59.806Z,53.71
2022-11-29T11:13:59.789Z,54.47
2022-11-29T11:14:59.771Z,53.51
2022-11-29T11:15:59.770Z,56.43
2022-11-29T11:16:59.775Z,54.25
2022-11-29T11:17:59.759Z,55.76
2022-11-29T11:18:59.737Z,54.70
2022-11-29T11:20:00.735Z,54.94
2022-11-29T11:20:59.723Z,57.67
2022-11-29T11:21:59.729Z,56.12
2022-11-29T11:22:59.713Z,55.43
2022-11-29T11:23:59.730Z,56.36
2022-11-29T11:24:59.702Z,55.14
2022-11-29T11:25:59.700Z,55.76
2022-11-29T11:26:59.687Z,56.71
2022-11-29T11:27:59.680Z,56.97
2022-11-29T11:28:59.685Z,53.86
2022-11-29T11:29:59.664Z,54.90
2022-11-29T11:30:59.671Z,54.34
2022-11-29T11:31:59.646Z,55.95
2022-11-29T11:32:59.649Z,54.72
2022-11-29T11:33:59.635Z,54.10
2022-11-29T11:34:59.642Z,54.63
2022-11-29T11:35:59.637Z,54.67
2022-11-29T11:36:59.635Z,56.76
2022-11-29T11:37:59.616Z,56.75
2022-11-29T11:38:59.607Z,57.56
2022-11-29T11:39:59.687Z,59.92
2022-11-29T11:40:59.593Z,55.64
2022-11-29T11:41:59.589Z,56.84
2022-11-29T11:42:59.579Z,56.09
2022-11-29T11:43:59.566Z,55.49
2022-11-29T11:44:59.746Z,56.00
2022-11-29T11:45:59.597Z,55.10
2022-11-29T11:46:59.543Z,52.47
2022-11-29T11:47:59.542Z,54.26
2022-11-29T11:48:59.539Z,56.82
2022-11-29T11:49:59.528Z,57.13
2022-11-29T11:50:59.535Z,56.24
2022-11-29T11:51:59.515Z,55.14
2022-11-29T11:52:59.512Z,55.21
2022-11-29T11:53:59.509Z,55.09
2022-11-29T11:54:59.499Z,54.81
2022-11-29T11:55:59.487Z,54.24
2022-11-29T11:56:59.511Z,55.32
2022-11-29T11:58:03.398Z,53.74
2022-11-29T11:59:00.467Z,54.67
2022-11-29T12:00:05.000Z,53.00
2022-11-29T12:01:04.499Z,53.28
2022-11-29T12:02:00.462Z,54.87
2022-11-29T12:02:59.521Z,54.85
2022-11-29T12:03:59.438Z,55.40
2022-11-29T12:04:59.435Z,55.04
2022-11-29T12:05:59.409Z,54.59
2022-11-29T12:06:59.407Z,53.83
2022-11-29T12:08:07.820Z,54.82
2022-11-29T12:09:01.408Z,52.95
2022-11-29T12:09:59.389Z,53.82
2022-11-29T12:11:02.777Z,56.53
2022-11-29T12:12:01.370Z,55.16
2022-11-29T12:12:59.380Z,54.40
2022-11-29T12:13:59.359Z,53.74
2022-11-29T12:14:59.363Z,52.79
2022-11-29T12:15:59.521Z,53.59
2022-11-29T12:16:59.328Z,55.88
2022-11-29T12:17:59.341Z,55.28
2022-11-29T12:18:59.350Z,55.60
2022-11-29T12:19:59.314Z,54.16
2022-11-29T12:20:59.317Z,54.27
2022-11-29T12:21:59.308Z,56.70
2022-11-29T12:22:59.298Z,55.96
2022-11-29T12:23:59.303Z,55.15
2022-11-29T12:24:59.287Z,54.29
2022-11-29T12:25:59.342Z,53.99
2022-11-29T12:26:59.508Z,54.02
2022-11-29T12:27:59.274Z,53.56
2022-11-29T12:28:59.259Z,54.95
2022-11-29T12:29:59.247Z,52.95
2022-11-29T12:30:59.300Z,52.87
2022-11-29T12:31:59.223Z,55.07
2022-11-29T12:32:59.243Z,56.87
2022-11-29T12:33:59.210Z,54.79
2022-11-29T12:34:59.241Z,55.91
2022-11-29T12:35:59.212Z,55.65
2022-11-29T12:36:59.192Z,57.96
2022-11-29T12:37:59.197Z,56.24
2022-11-29T12:38:59.183Z,56.41
2022-11-29T12:40:00.177Z,54.47
2022-11-29T12:40:59.173Z,56.03
2022-11-29T12:41:59.160Z,56.15
2022-11-29T12:42:59.164Z,56.78
2022-11-29T12:43:59.152Z,53.36
2022-11-29T12:44:59.149Z,55.97
2022-11-29T12:45:59.175Z,53.98
2022-11-29T12:47:34.195Z,57.56
2022-11-29T12:48:01.119Z,56.48
2022-11-29T12:48:59.124Z,54.58
2022-11-29T12:49:59.126Z,54.98
2022-11-29T12:50:59.110Z,56.84
2022-11-29T12:51:59.100Z,55.18
2022-11-29T12:52:59.083Z,55.43